sensor_id;sensor_type;location;lat;lon;timestamp;pressure;altitude;pressure_sealevel;temperature;humidity
59877;BME280;45749;51.140;17.184;2023-07-29T00:01:49;99443.56;;;20.75;74.75
59877;BME280;45749;51.140;17.184;2023-07-29T00:04:14;99450.56;;;20.76;74.64
59877;BME280;45749;51.140;17.184;2023-07-29T00:06:40;99450.56;;;20.76;74.91
59877;BME280;45749;51.140;17.184;2023-07-29T00:09:05;99440.84;;;20.68;74.81
59877;BME280;45749;51.140;17.184;2023-07-29T00:11:30;99445.81;;;20.71;74.73
59877;BME280;45749;51.140;17.184;2023-07-29T00:13:59;99441.88;;;20.67;74.58
59877;BME280;45749;51.140;17.184;2023-07-29T00:16:24;99430.97;;;20.69;75.08
59877;BME280;45749;51.140;17.184;2023-07-29T00:18:49;99440.88;;;20.75;74.91
59877;BME280;45749;51.140;17.184;2023-07-29T00:21:14;99429.72;;;20.65;75.07
59877;BME280;45749;51.140;17.184;2023-07-29T00:23:40;99430.53;;;20.65;74.79
59877;BME280;45749;51.140;17.184;2023-07-29T00:26:05;99445.41;;;20.68;75.15
59877;BME280;45749;51.140;17.184;2023-07-29T00:28:31;99445.31;;;20.54;75.14
59877;BME280;45749;51.140;17.184;2023-07-29T00:30:56;99448.31;;;20.45;75.24
59877;BME280;45749;51.140;17.184;2023-07-29T00:33:21;99429.44;;;20.25;75.72
59877;BME280;45749;51.140;17.184;2023-07-29T00:35:47;99463.28;;;20.32;76.03
59877;BME280;45749;51.140;17.184;2023-07-29T00:38:12;99445.06;;;20.21;76.03
59877;BME280;45749;51.140;17.184;2023-07-29T00:40:37;99450.94;;;20.10;76.11
59877;BME280;45749;51.140;17.184;2023-07-29T00:43:03;99451.72;;;20.04;76.19
59877;BME280;45749;51.140;17.184;2023-07-29T00:45:29;99456.13;;;20.11;76.36
59877;BME280;45749;51.140;17.184;2023-07-29T00:47:55;99460.28;;;20.14;76.47
59877;BME280;45749;51.140;17.184;2023-07-29T00:50:21;99446.50;;;19.96;76.12
59877;BME280;45749;51.140;17.184;2023-07-29T00:52:46;99466.72;;;19.98;76.46
59877;BME280;45749;51.140;17.184;2023-07-29T00:55:12;99460.66;;;19.89;76.39
59877;BME280;45749;51.140;17.184;2023-07-29T00:57:37;99439.72;;;19.72;76.56
59877;BME280;45749;51.140;17.184;2023-07-29T01:00:03;99468.09;;;19.87;76.40
59877;BME280;45749;51.140;17.184;2023-07-29T01:02:30;99461.63;;;19.82;76.62
59877;BME280;45749;51.140;17.184;2023-07-29T01:04:58;99456.66;;;19.79;76.75
59877;BME280;45749;51.140;17.184;2023-07-29T01:13:17;99457.69;;;19.78;76.88
59877;BME280;45749;51.140;17.184;2023-07-29T01:15:58;99453.72;;;19.74;76.48
59877;BME280;45749;51.140;17.184;2023-07-29T01:18:29;99457.16;;;19.67;77.03
59877;BME280;45749;51.140;17.184;2023-07-29T01:20:59;99450.28;;;19.58;76.95
59877;BME280;45749;51.140;17.184;2023-07-29T01:23:26;99452.88;;;19.52;76.98
59877;BME280;45749;51.140;17.184;2023-07-29T01:25:51;99454.63;;;19.44;77.27
59877;BME280;45749;51.140;17.184;2023-07-29T01:28:16;99439.75;;;19.35;77.37
59877;BME280;45749;51.140;17.184;2023-07-29T01:30:43;99436.50;;;19.40;77.29
59877;BME280;45749;51.140;17.184;2023-07-29T01:33:32;99445.63;;;19.45;76.94
59877;BME280;45749;51.140;17.184;2023-07-29T01:36:11;99444.91;;;19.37;77.16
59877;BME280;45749;51.140;17.184;2023-07-29T01:38:38;99456.31;;;19.45;77.21
59877;BME280;45749;51.140;17.184;2023-07-29T01:41:07;99453.44;;;19.47;76.96
59877;BME280;45749;51.140;17.184;2023-07-29T01:43:33;99438.13;;;19.41;76.92
59877;BME280;45749;51.140;17.184;2023-07-29T01:46:02;99458.41;;;19.50;77.06
59877;BME280;45749;51.140;17.184;2023-07-29T01:48:28;99445.16;;;19.42;77.25
59877;BME280;45749;51.140;17.184;2023-07-29T01:50:55;99452.81;;;19.45;76.66
59877;BME280;45749;51.140;17.184;2023-07-29T01:53:20;99431.44;;;19.30;76.96
59877;BME280;45749;51.140;17.184;2023-07-29T01:55:46;99454.97;;;19.56;76.70
59877;BME280;45749;51.140;17.184;2023-07-29T01:58:11;99452.75;;;19.60;76.51
59877;BME280;45749;51.140;17.184;2023-07-29T02:00:37;99422.94;;;19.41;77.09
59877;BME280;45749;51.140;17.184;2023-07-29T02:03:02;99421.97;;;19.49;76.89
59877;BME280;45749;51.140;17.184;2023-07-29T02:05:28;99464.44;;;19.74;76.75
59877;BME280;45749;51.140;17.184;2023-07-29T02:07:53;99460.09;;;19.73;76.97
59877;BME280;45749;51.140;17.184;2023-07-29T02:10:18;99438.00;;;19.64;76.69
59877;BME280;45749;51.140;17.184;2023-07-29T02:12:44;99440.84;;;19.62;76.96
59877;BME280;45749;51.140;17.184;2023-07-29T02:15:09;99457.00;;;19.69;76.79
59877;BME280;45749;51.140;17.184;2023-07-29T02:17:35;99463.75;;;19.65;76.30
59877;BME280;45749;51.140;17.184;2023-07-29T02:20:01;99460.59;;;19.61;76.62
59877;BME280;45749;51.140;17.184;2023-07-29T02:22:26;99440.44;;;19.44;76.95
59877;BME280;45749;51.140;17.184;2023-07-29T02:24:51;99466.31;;;19.58;76.90
59877;BME280;45749;51.140;17.184;2023-07-29T02:27:17;99447.72;;;19.50;76.97
59877;BME280;45749;51.140;17.184;2023-07-29T02:29:42;99428.03;;;19.36;76.70
59877;BME280;45749;51.140;17.184;2023-07-29T02:32:07;99431.78;;;19.42;76.83
59877;BME280;45749;51.140;17.184;2023-07-29T02:34:33;99431.66;;;19.29;76.99
59877;BME280;45749;51.140;17.184;2023-07-29T02:36:58;99430.72;;;19.21;76.87
59877;BME280;45749;51.140;17.184;2023-07-29T02:39:24;99424.84;;;19.11;77.26
59877;BME280;45749;51.140;17.184;2023-07-29T02:41:49;99411.41;;;19.05;77.35
59877;BME280;45749;51.140;17.184;2023-07-29T02:44:15;99417.63;;;19.05;77.45
59877;BME280;45749;51.140;17.184;2023-07-29T02:46:41;99441.19;;;19.16;77.62
59877;BME280;45749;51.140;17.184;2023-07-29T02:49:06;99428.19;;;19.13;77.38
59877;BME280;45749;51.140;17.184;2023-07-29T02:51:34;99410.72;;;18.96;77.06
59877;BME280;45749;51.140;17.184;2023-07-29T02:54:00;99415.03;;;18.97;76.98
59877;BME280;45749;51.140;17.184;2023-07-29T02:56:25;99440.28;;;19.09;77.71
59877;BME280;45749;51.140;17.184;2023-07-29T02:58:50;99433.00;;;18.88;77.91
59877;BME280;45749;51.140;17.184;2023-07-29T03:01:19;99426.97;;;18.80;78.00
59877;BME280;45749;51.140;17.184;2023-07-29T03:03:44;99444.28;;;18.84;78.08
59877;BME280;45749;51.140;17.184;2023-07-29T03:06:11;99437.00;;;18.78;78.41
59877;BME280;45749;51.140;17.184;2023-07-29T03:08:36;99452.22;;;18.77;77.99
59877;BME280;45749;51.140;17.184;2023-07-29T03:11:12;99430.72;;;18.70;78.13
59877;BME280;45749;51.140;17.184;2023-07-29T03:13:37;99449.25;;;18.87;77.82
59877;BME280;45749;51.140;17.184;2023-07-29T03:16:15;99449.81;;;18.82;78.16
59877;BME280;45749;51.140;17.184;2023-07-29T03:18:43;99418.66;;;18.60;78.27
59877;BME280;45749;51.140;17.184;2023-07-29T03:21:09;99410.53;;;18.68;78.50
59877;BME280;45749;51.140;17.184;2023-07-29T03:23:35;99451.94;;;18.87;78.30
59877;BME280;45749;51.140;17.184;2023-07-29T03:26:02;99451.75;;;18.73;78.85
59877;BME280;45749;51.140;17.184;2023-07-29T03:28:33;99425.19;;;18.57;78.98
59877;BME280;45749;51.140;17.184;2023-07-29T03:30:58;99424.47;;;18.63;78.88
59877;BME280;45749;51.140;17.184;2023-07-29T03:33:25;99460.19;;;18.92;78.87
59877;BME280;45749;51.140;17.184;2023-07-29T03:35:50;99460.13;;;19.00;78.92
59877;BME280;45749;51.140;17.184;2023-07-29T03:38:16;99428.91;;;18.86;78.90
59877;BME280;45749;51.140;17.184;2023-07-29T03:40:42;99419.03;;;18.86;78.83
59877;BME280;45749;51.140;17.184;2023-07-29T03:43:07;99447.41;;;19.02;78.82
59877;BME280;45749;51.140;17.184;2023-07-29T03:45:34;99426.03;;;18.87;78.80
59877;BME280;45749;51.140;17.184;2023-07-29T03:48:00;99455.03;;;19.05;78.71
59877;BME280;45749;51.140;17.184;2023-07-29T03:50:26;99431.19;;;18.89;78.95
59877;BME280;45749;51.140;17.184;2023-07-29T03:52:51;99434.69;;;18.89;78.96
59877;BME280;45749;51.140;17.184;2023-07-29T03:55:17;99463.16;;;19.12;78.78
59877;BME280;45749;51.140;17.184;2023-07-29T03:57:42;99460.28;;;18.98;78.78
59877;BME280;45749;51.140;17.184;2023-07-29T04:00:08;99466.19;;;18.94;78.98
59877;BME280;45749;51.140;17.184;2023-07-29T04:02:34;99470.72;;;18.93;79.11
59877;BME280;45749;51.140;17.184;2023-07-29T04:05:03;99451.56;;;18.90;79.11
59877;BME280;45749;51.140;17.184;2023-07-29T04:07:28;99451.28;;;18.85;79.11
59877;BME280;45749;51.140;17.184;2023-07-29T04:09:54;99451.47;;;18.83;79.39
59877;BME280;45749;51.140;17.184;2023-07-29T04:12:19;99452.41;;;18.76;79.36
59877;BME280;45749;51.140;17.184;2023-07-29T04:14:46;99457.91;;;18.74;79.38
59877;BME280;45749;51.140;17.184;2023-07-29T04:17:11;99435.22;;;18.55;79.59
59877;BME280;45749;51.140;17.184;2023-07-29T04:19:37;99461.28;;;18.68;79.84
59877;BME280;45749;51.140;17.184;2023-07-29T04:22:02;99444.34;;;18.61;79.87
59877;BME280;45749;51.140;17.184;2023-07-29T04:24:28;99453.19;;;18.61;79.84
59877;BME280;45749;51.140;17.184;2023-07-29T04:26:53;99475.81;;;18.73;79.93
59877;BME280;45749;51.140;17.184;2023-07-29T04:29:19;99449.25;;;18.57;80.13
59877;BME280;45749;51.140;17.184;2023-07-29T04:31:44;99458.81;;;18.66;80.02
59877;BME280;45749;51.140;17.184;2023-07-29T04:34:09;99451.34;;;18.62;80.30
59877;BME280;45749;51.140;17.184;2023-07-29T04:36:34;99450.34;;;18.63;80.58
59877;BME280;45749;51.140;17.184;2023-07-29T04:39:00;99482.16;;;18.87;80.62
59877;BME280;45749;51.140;17.184;2023-07-29T04:41:25;99455.69;;;18.63;81.29
59877;BME280;45749;51.140;17.184;2023-07-29T04:43:51;99462.59;;;18.57;81.50
59877;BME280;45749;51.140;17.184;2023-07-29T04:46:17;99446.28;;;18.52;81.24
59877;BME280;45749;51.140;17.184;2023-07-29T04:48:43;99455.13;;;18.67;81.88
59877;BME280;45749;51.140;17.184;2023-07-29T04:51:08;99453.28;;;18.68;82.36
59877;BME280;45749;51.140;17.184;2023-07-29T04:53:34;99460.84;;;18.64;82.25
59877;BME280;45749;51.140;17.184;2023-07-29T04:56:01;99449.91;;;18.59;82.33
59877;BME280;45749;51.140;17.184;2023-07-29T04:58:27;99457.72;;;18.61;82.47
59877;BME280;45749;51.140;17.184;2023-07-29T05:00:55;99476.81;;;18.72;82.57
59877;BME280;45749;51.140;17.184;2023-07-29T05:03:20;99473.13;;;18.73;82.68
59877;BME280;45749;51.140;17.184;2023-07-29T05:05:45;99467.06;;;18.80;82.68
59877;BME280;45749;51.140;17.184;2023-07-29T05:08:11;99459.38;;;18.91;82.34
59877;BME280;45749;51.140;17.184;2023-07-29T05:10:36;99444.38;;;18.90;82.40
59877;BME280;45749;51.140;17.184;2023-07-29T05:13:01;99458.34;;;19.07;82.02
59877;BME280;45749;51.140;17.184;2023-07-29T05:15:27;99438.66;;;18.93;82.44
59877;BME280;45749;51.140;17.184;2023-07-29T05:17:52;99473.84;;;19.12;82.98
59877;BME280;45749;51.140;17.184;2023-07-29T05:20:17;99478.78;;;19.15;82.77
59877;BME280;45749;51.140;17.184;2023-07-29T05:22:42;99455.78;;;18.99;83.36
59877;BME280;45749;51.140;17.184;2023-07-29T05:25:08;99486.06;;;19.21;83.27
59877;BME280;45749;51.140;17.184;2023-07-29T05:27:33;99439.63;;;19.07;83.40
59877;BME280;45749;51.140;17.184;2023-07-29T05:29:59;99482.91;;;19.32;83.37
59877;BME280;45749;51.140;17.184;2023-07-29T05:32:24;99485.22;;;19.35;83.61
59877;BME280;45749;51.140;17.184;2023-07-29T05:34:49;99455.19;;;19.18;83.66
59877;BME280;45749;51.140;17.184;2023-07-29T05:37:14;99489.41;;;19.44;84.13
59877;BME280;45749;51.140;17.184;2023-07-29T05:39:40;99488.66;;;19.51;83.79
59877;BME280;45749;51.140;17.184;2023-07-29T05:42:05;99451.66;;;19.33;84.06
59877;BME280;45749;51.140;17.184;2023-07-29T05:44:31;99462.03;;;19.42;84.27
59877;BME280;45749;51.140;17.184;2023-07-29T05:46:56;99464.03;;;19.55;84.69
59877;BME280;45749;51.140;17.184;2023-07-29T05:49:22;99486.50;;;19.76;84.75
59877;BME280;45749;51.140;17.184;2023-07-29T05:51:47;99463.94;;;19.63;84.65
59877;BME280;45749;51.140;17.184;2023-07-29T05:54:13;99467.03;;;19.67;85.08
59877;BME280;45749;51.140;17.184;2023-07-29T05:56:38;99494.50;;;19.97;84.98
59877;BME280;45749;51.140;17.184;2023-07-29T05:59:04;99464.94;;;19.84;84.36
59877;BME280;45749;51.140;17.184;2023-07-29T06:01:29;99493.56;;;20.05;84.90
59877;BME280;45749;51.140;17.184;2023-07-29T06:03:54;99501.75;;;20.25;84.66
59877;BME280;45749;51.140;17.184;2023-07-29T06:06:20;99481.75;;;20.21;84.84
59877;BME280;45749;51.140;17.184;2023-07-29T06:08:45;99497.75;;;20.42;85.00
59877;BME280;45749;51.140;17.184;2023-07-29T06:11:10;99497.81;;;20.49;84.54
59877;BME280;45749;51.140;17.184;2023-07-29T06:13:36;99489.78;;;20.49;84.83
59877;BME280;45749;51.140;17.184;2023-07-29T06:16:01;99472.44;;;20.45;85.03
59877;BME280;45749;51.140;17.184;2023-07-29T06:18:27;99492.78;;;20.60;84.63
59877;BME280;45749;51.140;17.184;2023-07-29T06:20:52;99466.88;;;20.46;84.72
59877;BME280;45749;51.140;17.184;2023-07-29T06:23:17;99499.00;;;20.68;84.69
59877;BME280;45749;51.140;17.184;2023-07-29T06:25:43;99483.75;;;20.68;84.58
59877;BME280;45749;51.140;17.184;2023-07-29T06:28:11;99458.50;;;20.56;84.08
59877;BME280;45749;51.140;17.184;2023-07-29T06:30:36;99486.72;;;20.80;84.46
59877;BME280;45749;51.140;17.184;2023-07-29T06:33:02;99489.22;;;20.88;83.96
59877;BME280;45749;51.140;17.184;2023-07-29T06:35:28;99498.09;;;20.95;84.68
59877;BME280;45749;51.140;17.184;2023-07-29T06:37:53;99480.59;;;20.93;84.15
59877;BME280;45749;51.140;17.184;2023-07-29T06:40:19;99481.00;;;20.96;84.14
59877;BME280;45749;51.140;17.184;2023-07-29T06:42:44;99489.72;;;21.12;83.94
59877;BME280;45749;51.140;17.184;2023-07-29T06:45:09;99469.06;;;21.05;83.78
59877;BME280;45749;51.140;17.184;2023-07-29T06:47:35;99479.00;;;21.12;83.71
59877;BME280;45749;51.140;17.184;2023-07-29T06:50:00;99489.59;;;21.26;83.57
59877;BME280;45749;51.140;17.184;2023-07-29T06:52:26;99478.44;;;21.23;83.70
59877;BME280;45749;51.140;17.184;2023-07-29T06:54:51;99503.09;;;21.46;83.60
59877;BME280;45749;51.140;17.184;2023-07-29T06:57:16;99500.44;;;21.53;82.94
59877;BME280;45749;51.140;17.184;2023-07-29T06:59:42;99483.53;;;21.52;82.95
59877;BME280;45749;51.140;17.184;2023-07-29T07:02:07;99482.50;;;21.60;83.27
59877;BME280;45749;51.140;17.184;2023-07-29T07:04:32;99488.28;;;21.70;83.53
59877;BME280;45749;51.140;17.184;2023-07-29T07:06:58;99477.56;;;21.77;82.78
59877;BME280;45749;51.140;17.184;2023-07-29T07:09:23;99464.34;;;21.75;82.19
59877;BME280;45749;51.140;17.184;2023-07-29T07:11:49;99461.25;;;21.78;82.61
59877;BME280;45749;51.140;17.184;2023-07-29T07:14:14;99476.53;;;21.91;82.64
59877;BME280;45749;51.140;17.184;2023-07-29T07:16:39;99467.88;;;21.96;82.17
59877;BME280;45749;51.140;17.184;2023-07-29T07:19:05;99481.31;;;22.09;81.83
59877;BME280;45749;51.140;17.184;2023-07-29T07:21:30;99471.59;;;22.08;81.66
59877;BME280;45749;51.140;17.184;2023-07-29T07:23:57;99472.03;;;22.12;81.33
59877;BME280;45749;51.140;17.184;2023-07-29T07:26:22;99487.94;;;22.27;82.21
59877;BME280;45749;51.140;17.184;2023-07-29T07:28:48;99485.06;;;22.35;81.57
59877;BME280;45749;51.140;17.184;2023-07-29T07:31:13;99491.44;;;22.40;81.33
59877;BME280;45749;51.140;17.184;2023-07-29T07:33:38;99481.31;;;22.42;81.24
59877;BME280;45749;51.140;17.184;2023-07-29T07:36:04;99474.31;;;22.41;81.09
59877;BME280;45749;51.140;17.184;2023-07-29T07:38:29;99490.00;;;22.58;80.65
59877;BME280;45749;51.140;17.184;2023-07-29T07:40:56;99491.41;;;22.67;80.79
59877;BME280;45749;51.140;17.184;2023-07-29T07:43:22;99487.28;;;22.71;81.04
59877;BME280;45749;51.140;17.184;2023-07-29T07:45:47;99473.84;;;22.71;80.30
59877;BME280;45749;51.140;17.184;2023-07-29T07:48:12;99477.50;;;22.83;80.50
59877;BME280;45749;51.140;17.184;2023-07-29T07:50:38;99467.16;;;22.87;80.21
59877;BME280;45749;51.140;17.184;2023-07-29T07:53:04;99473.56;;;22.99;80.08
59877;BME280;45749;51.140;17.184;2023-07-29T07:55:29;99476.22;;;23.06;79.81
59877;BME280;45749;51.140;17.184;2023-07-29T07:57:54;99471.22;;;23.09;79.97
59877;BME280;45749;51.140;17.184;2023-07-29T08:00:20;99462.56;;;23.07;79.62
59877;BME280;45749;51.140;17.184;2023-07-29T08:02:45;99460.00;;;23.19;79.87
59877;BME280;45749;51.140;17.184;2023-07-29T08:05:11;99476.31;;;23.31;78.57
59877;BME280;45749;51.140;17.184;2023-07-29T08:07:36;99471.09;;;23.36;78.48
59877;BME280;45749;51.140;17.184;2023-07-29T08:10:01;99450.41;;;23.36;78.61
59877;BME280;45749;51.140;17.184;2023-07-29T08:12:27;99455.09;;;23.48;78.53
59877;BME280;45749;51.140;17.184;2023-07-29T08:14:52;99458.75;;;23.60;78.10
59877;BME280;45749;51.140;17.184;2023-07-29T08:17:17;99458.91;;;23.65;78.08
59877;BME280;45749;51.140;17.184;2023-07-29T08:19:43;99462.22;;;23.74;78.02
59877;BME280;45749;51.140;17.184;2023-07-29T08:22:08;99452.44;;;23.79;77.95
59877;BME280;45749;51.140;17.184;2023-07-29T08:24:33;99454.81;;;23.94;77.39
59877;BME280;45749;51.140;17.184;2023-07-29T08:26:59;99442.53;;;23.98;77.25
59877;BME280;45749;51.140;17.184;2023-07-29T08:29:24;99454.50;;;24.09;76.75
59877;BME280;45749;51.140;17.184;2023-07-29T08:31:49;99439.97;;;24.10;76.02
59877;BME280;45749;51.140;17.184;2023-07-29T08:34:16;99443.81;;;24.21;76.78
59877;BME280;45749;51.140;17.184;2023-07-29T08:36:42;99438.53;;;24.32;75.81
59877;BME280;45749;51.140;17.184;2023-07-29T08:39:07;99438.25;;;24.41;76.23
59877;BME280;45749;51.140;17.184;2023-07-29T08:41:52;99440.59;;;24.55;75.42
59877;BME280;45749;51.140;17.184;2023-07-29T08:44:22;99434.88;;;24.64;76.39
59877;BME280;45749;51.140;17.184;2023-07-29T08:46:49;99434.38;;;24.73;75.29
59877;BME280;45749;51.140;17.184;2023-07-29T08:49:15;99426.81;;;24.82;74.53
59877;BME280;45749;51.140;17.184;2023-07-29T08:51:44;99402.59;;;24.75;74.67
59877;BME280;45749;51.140;17.184;2023-07-29T08:54:10;99406.78;;;24.90;73.92
59877;BME280;45749;51.140;17.184;2023-07-29T08:56:36;99409.09;;;25.04;73.93
59877;BME280;45749;51.140;17.184;2023-07-29T08:59:02;99416.69;;;25.14;72.19
59877;BME280;45749;51.140;17.184;2023-07-29T09:01:29;99416.81;;;25.19;72.28
59877;BME280;45749;51.140;17.184;2023-07-29T09:03:55;99404.63;;;25.29;73.37
59877;BME280;45749;51.140;17.184;2023-07-29T09:06:21;99388.44;;;25.29;73.48
59877;BME280;45749;51.140;17.184;2023-07-29T09:08:49;99403.41;;;25.55;73.15
59877;BME280;45749;51.140;17.184;2023-07-29T09:11:15;99392.47;;;25.49;71.56
59877;BME280;45749;51.140;17.184;2023-07-29T09:13:42;99406.13;;;25.66;71.59
59877;BME280;45749;51.140;17.184;2023-07-29T09:16:08;99389.25;;;25.71;71.39
59877;BME280;45749;51.140;17.184;2023-07-29T09:18:34;99399.69;;;25.79;70.49
59877;BME280;45749;51.140;17.184;2023-07-29T09:20:59;99394.81;;;25.88;70.46
59877;BME280;45749;51.140;17.184;2023-07-29T09:23:26;99388.81;;;25.86;70.12
59877;BME280;45749;51.140;17.184;2023-07-29T09:26:00;99403.03;;;26.05;70.34
59877;BME280;45749;51.140;17.184;2023-07-29T09:28:26;99401.50;;;26.09;69.94
59877;BME280;45749;51.140;17.184;2023-07-29T09:30:53;99414.31;;;26.25;69.84
59877;BME280;45749;51.140;17.184;2023-07-29T09:33:18;99411.97;;;26.29;69.42
59877;BME280;45749;51.140;17.184;2023-07-29T09:35:44;99401.28;;;26.34;68.53
59877;BME280;45749;51.140;17.184;2023-07-29T09:38:14;99406.91;;;26.44;66.35
59877;BME280;45749;51.140;17.184;2023-07-29T09:40:40;99390.34;;;26.40;66.65
59877;BME280;45749;51.140;17.184;2023-07-29T09:43:08;99393.75;;;26.48;65.96
59877;BME280;45749;51.140;17.184;2023-07-29T09:45:34;99399.03;;;26.54;67.12
59877;BME280;45749;51.140;17.184;2023-07-29T09:48:01;99398.22;;;26.65;66.72
59877;BME280;45749;51.140;17.184;2023-07-29T09:50:27;99401.25;;;26.69;66.03
59877;BME280;45749;51.140;17.184;2023-07-29T09:52:54;99396.88;;;26.68;64.88
59877;BME280;45749;51.140;17.184;2023-07-29T09:55:23;99388.69;;;26.63;65.94
59877;BME280;45749;51.140;17.184;2023-07-29T09:58:01;99381.84;;;26.72;65.28
59877;BME280;45749;51.140;17.184;2023-07-29T10:00:30;99380.28;;;26.76;65.98
59877;BME280;45749;51.140;17.184;2023-07-29T10:02:55;99387.38;;;26.94;65.33
59877;BME280;45749;51.140;17.184;2023-07-29T10:05:22;99384.88;;;27.04;64.91
59877;BME280;45749;51.140;17.184;2023-07-29T10:07:49;99382.66;;;27.13;63.45
59877;BME280;45749;51.140;17.184;2023-07-29T10:10:15;99385.09;;;27.15;63.90
59877;BME280;45749;51.140;17.184;2023-07-29T10:12:41;99382.75;;;27.06;64.23
59877;BME280;45749;51.140;17.184;2023-07-29T10:15:08;99394.16;;;27.20;64.11
59877;BME280;45749;51.140;17.184;2023-07-29T10:17:35;99390.81;;;27.30;63.06
59877;BME280;45749;51.140;17.184;2023-07-29T10:20:03;99373.00;;;27.34;63.11
59877;BME280;45749;51.140;17.184;2023-07-29T10:22:33;99379.91;;;27.42;63.62
59877;BME280;45749;51.140;17.184;2023-07-29T10:25:03;99398.41;;;27.62;64.12
59877;BME280;45749;51.140;17.184;2023-07-29T10:27:30;99367.94;;;27.54;62.18
59877;BME280;45749;51.140;17.184;2023-07-29T10:29:58;99382.06;;;27.73;62.35
59877;BME280;45749;51.140;17.184;2023-07-29T10:32:25;99388.44;;;27.67;61.11
59877;BME280;45749;51.140;17.184;2023-07-29T10:34:51;99385.19;;;27.65;61.52
59877;BME280;45749;51.140;17.184;2023-07-29T10:37:17;99381.41;;;27.66;62.15
59877;BME280;45749;51.140;17.184;2023-07-29T10:39:53;99372.72;;;27.64;62.29
59877;BME280;45749;51.140;17.184;2023-07-29T10:42:19;99366.06;;;27.72;60.94
59877;BME280;45749;51.140;17.184;2023-07-29T10:44:49;99358.91;;;27.66;60.48
59877;BME280;45749;51.140;17.184;2023-07-29T10:47:23;99359.66;;;27.61;60.42
59877;BME280;45749;51.140;17.184;2023-07-29T10:49:54;99341.84;;;27.48;60.51
59877;BME280;45749;51.140;17.184;2023-07-29T10:55:02;99348.88;;;27.49;60.66
59877;BME280;45749;51.140;17.184;2023-07-29T10:57:37;99347.75;;;27.62;60.15
59877;BME280;45749;51.140;17.184;2023-07-29T11:00:04;99347.97;;;27.60;59.50
59877;BME280;45749;51.140;17.184;2023-07-29T11:02:40;99348.97;;;27.54;59.85
59877;BME280;45749;51.140;17.184;2023-07-29T11:05:07;99331.31;;;27.52;60.26
59877;BME280;45749;51.140;17.184;2023-07-29T11:07:47;99309.31;;;27.48;59.94
59877;BME280;45749;51.140;17.184;2023-07-29T11:10:14;99329.25;;;27.76;59.64
59877;BME280;45749;51.140;17.184;2023-07-29T11:12:45;99335.44;;;27.88;59.40
59877;BME280;45749;51.140;17.184;2023-07-29T11:17:41;99313.91;;;27.98;59.43
59877;BME280;45749;51.140;17.184;2023-07-29T11:20:07;99301.25;;;28.04;58.96
59877;BME280;45749;51.140;17.184;2023-07-29T11:22:33;99299.22;;;28.16;58.49
59877;BME280;45749;51.140;17.184;2023-07-29T11:24:58;99295.88;;;28.31;57.61
59877;BME280;45749;51.140;17.184;2023-07-29T11:27:24;99302.19;;;28.37;58.56
59877;BME280;45749;51.140;17.184;2023-07-29T11:29:49;99310.69;;;28.40;58.33
59877;BME280;45749;51.140;17.184;2023-07-29T11:32:15;99299.84;;;28.40;57.76
59877;BME280;45749;51.140;17.184;2023-07-29T11:34:41;99303.53;;;28.34;57.23
59877;BME280;45749;51.140;17.184;2023-07-29T11:37:10;99305.53;;;28.22;57.24
59877;BME280;45749;51.140;17.184;2023-07-29T11:39:44;99291.66;;;28.18;58.35
59877;BME280;45749;51.140;17.184;2023-07-29T11:42:14;99294.75;;;28.27;58.38
59877;BME280;45749;51.140;17.184;2023-07-29T11:44:40;99288.88;;;28.35;58.00
59877;BME280;45749;51.140;17.184;2023-07-29T11:47:10;99272.03;;;28.33;57.05
59877;BME280;45749;51.140;17.184;2023-07-29T11:49:35;99276.81;;;28.26;57.44
59877;BME280;45749;51.140;17.184;2023-07-29T11:52:06;99272.16;;;28.21;56.74
59877;BME280;45749;51.140;17.184;2023-07-29T11:54:32;99276.91;;;28.31;57.55
59877;BME280;45749;51.140;17.184;2023-07-29T11:56:57;99277.88;;;28.42;56.70
59877;BME280;45749;51.140;17.184;2023-07-29T11:59:23;99277.13;;;28.46;56.18
59877;BME280;45749;51.140;17.184;2023-07-29T12:01:48;99267.28;;;28.40;56.41
59877;BME280;45749;51.140;17.184;2023-07-29T12:04:14;99258.88;;;28.42;56.38
59877;BME280;45749;51.140;17.184;2023-07-29T12:06:39;99272.81;;;28.50;55.26
59877;BME280;45749;51.140;17.184;2023-07-29T12:09:07;99266.88;;;28.54;55.23
59877;BME280;45749;51.140;17.184;2023-07-29T12:11:35;99248.84;;;28.42;55.41
59877;BME280;45749;51.140;17.184;2023-07-29T12:14:00;99267.69;;;28.54;54.86
59877;BME280;45749;51.140;17.184;2023-07-29T12:16:26;99266.88;;;28.54;54.88
59877;BME280;45749;51.140;17.184;2023-07-29T12:18:51;99272.03;;;28.55;54.96
59877;BME280;45749;51.140;17.184;2023-07-29T12:21:18;99276.16;;;28.58;56.43
59877;BME280;45749;51.140;17.184;2023-07-29T12:23:44;99257.97;;;28.58;55.16
59877;BME280;45749;51.140;17.184;2023-07-29T12:26:10;99275.81;;;28.76;54.69
59877;BME280;45749;51.140;17.184;2023-07-29T12:28:35;99271.19;;;28.77;54.79
59877;BME280;45749;51.140;17.184;2023-07-29T12:31:00;99266.31;;;28.79;54.29
59877;BME280;45749;51.140;17.184;2023-07-29T12:33:32;99269.53;;;28.75;53.29
59877;BME280;45749;51.140;17.184;2023-07-29T12:35:59;99267.34;;;28.72;52.46
59877;BME280;45749;51.140;17.184;2023-07-29T12:38:28;99248.94;;;28.52;53.35
59877;BME280;45749;51.140;17.184;2023-07-29T12:40:54;99257.75;;;28.65;52.48
59877;BME280;45749;51.140;17.184;2023-07-29T12:43:19;99256.88;;;28.59;51.90
59877;BME280;45749;51.140;17.184;2023-07-29T12:45:44;99255.72;;;28.50;52.31
59877;BME280;45749;51.140;17.184;2023-07-29T12:48:10;99253.09;;;28.38;50.88
59877;BME280;45749;51.140;17.184;2023-07-29T12:50:36;99231.69;;;28.15;51.43
59877;BME280;45749;51.140;17.184;2023-07-29T12:53:02;99249.16;;;28.24;50.97
59877;BME280;45749;51.140;17.184;2023-07-29T12:55:27;99245.47;;;28.13;50.71
59877;BME280;45749;51.140;17.184;2023-07-29T12:57:52;99240.91;;;28.14;50.73